createdAt,value
2024-05-09T00:02:09.264Z,9.92
2024-05-09T00:04:36.029Z,9.75
2024-05-09T00:07:02.830Z,9.71
2024-05-09T00:09:29.511Z,9.75
2024-05-09T00:11:56.245Z,9.80
2024-05-09T00:14:23.048Z,9.79
2024-05-09T00:16:49.875Z,9.82
2024-05-09T00:19:16.689Z,9.84
2024-05-09T00:21:43.514Z,9.85
2024-05-09T00:24:10.297Z,9.80
2024-05-09T00:26:36.994Z,9.82
2024-05-09T00:29:03.692Z,9.84
2024-05-09T00:31:30.363Z,9.86
2024-05-09T00:33:57.194Z,9.85
2024-05-09T00:36:24.051Z,9.80
2024-05-09T00:38:50.699Z,9.72
2024-05-09T00:41:19.651Z,9.80
2024-05-09T00:43:46.697Z,9.80
2024-05-09T00:46:13.499Z,9.71
2024-05-09T00:48:40.349Z,9.67
2024-05-09T00:51:07.168Z,9.62
2024-05-09T00:53:33.981Z,9.55
2024-05-09T00:56:00.802Z,9.57
2024-05-09T00:58:27.895Z,9.61
2024-05-09T01:00:54.604Z,9.66
2024-05-09T01:03:21.720Z,9.63
2024-05-09T01:05:48.793Z,9.51
2024-05-09T01:08:15.508Z,9.43
2024-05-09T01:10:44.876Z,9.39
2024-05-09T01:13:13.059Z,9.42
2024-05-09T01:15:39.770Z,9.37
2024-05-09T01:18:11.054Z,9.36
2024-05-09T01:20:42.450Z,9.30
2024-05-09T01:23:11.965Z,9.25
2024-05-09T01:25:39.356Z,9.26
2024-05-09T01:28:06.314Z,9.22
2024-05-09T01:30:35.819Z,9.21
2024-05-09T01:33:09.306Z,9.14
2024-05-09T01:35:37.811Z,9.09
2024-05-09T01:38:05.137Z,9.07
2024-05-09T01:40:37.580Z,9.12
2024-05-09T01:43:10.945Z,9.13
2024-05-09T01:45:41.763Z,9.15
2024-05-09T01:48:09.070Z,9.15
2024-05-09T01:50:40.079Z,9.10
2024-05-09T01:53:09.980Z,9.09
2024-05-09T01:55:36.873Z,9.06
2024-05-09T01:58:03.682Z,9.02
2024-05-09T02:00:38.173Z,9.01
2024-05-09T02:03:10.178Z,9.00
2024-05-09T02:05:37.886Z,9.00
2024-05-09T02:08:05.732Z,8.97
2024-05-09T02:10:33.401Z,8.99
2024-05-09T02:13:00.627Z,8.98
2024-05-09T02:15:27.328Z,8.93
2024-05-09T02:17:54.143Z,8.92
2024-05-09T02:20:30.202Z,8.88
2024-05-09T02:23:02.690Z,8.83
2024-05-09T02:25:30.104Z,8.83
2024-05-09T02:27:56.777Z,8.78
2024-05-09T02:30:30.729Z,8.74
2024-05-09T02:33:05.695Z,8.75
2024-05-09T02:35:32.555Z,8.79
2024-05-09T02:37:59.285Z,8.79
2024-05-09T02:40:35.044Z,8.73
2024-05-09T02:43:04.389Z,8.67
2024-05-09T02:45:31.106Z,8.65
2024-05-09T02:47:58.015Z,8.63
2024-05-09T02:50:33.514Z,8.61
2024-05-09T02:53:04.996Z,8.57
2024-05-09T02:55:31.824Z,8.50
2024-05-09T02:57:58.490Z,8.51
2024-05-09T03:00:34.299Z,8.44
2024-05-09T03:03:06.773Z,8.48
2024-05-09T03:05:33.723Z,8.51
2024-05-09T03:08:00.498Z,8.48
2024-05-09T03:10:29.163Z,8.49
2024-05-09T03:13:06.176Z,8.54
2024-05-09T03:15:33.158Z,8.56
2024-05-09T03:18:00.519Z,8.51
2024-05-09T03:20:33.104Z,8.45
2024-05-09T03:23:02.134Z,8.45
2024-05-09T03:25:28.922Z,8.43
2024-05-09T03:27:55.752Z,8.43
2024-05-09T03:30:30.686Z,8.38
2024-05-09T03:33:06.182Z,8.39
2024-05-09T03:35:32.921Z,8.43
2024-05-09T03:37:59.694Z,8.37
2024-05-09T03:40:29.055Z,8.37
2024-05-09T03:42:57.352Z,8.45
2024-05-09T03:45:23.981Z,8.48
2024-05-09T03:47:50.916Z,8.46
2024-05-09T03:50:22.891Z,8.47
2024-05-09T03:52:56.617Z,8.46
2024-05-09T03:55:23.336Z,8.34
2024-05-09T03:57:50.004Z,8.29
2024-05-09T04:00:22.533Z,8.34
2024-05-09T04:02:58.961Z,8.37
2024-05-09T04:05:25.763Z,8.35
2024-05-09T04:07:52.462Z,8.32
2024-05-09T04:10:27.695Z,8.34
2024-05-09T04:12:59.199Z,8.32
2024-05-09T04:15:25.881Z,8.40
2024-05-09T04:17:52.754Z,8.39
2024-05-09T04:20:29.202Z,8.37
2024-05-09T04:23:03.844Z,8.35
2024-05-09T04:25:31.975Z,8.40
2024-05-09T04:27:58.678Z,8.40
2024-05-09T04:30:34.598Z,8.46
2024-05-09T04:33:05.855Z,8.47
2024-05-09T04:35:32.896Z,8.53
2024-05-09T04:37:59.684Z,8.61
2024-05-09T04:40:33.077Z,8.68
2024-05-09T04:43:02.925Z,8.77
2024-05-09T04:45:29.623Z,8.86
2024-05-09T04:47:56.534Z,8.89
2024-05-09T04:50:30.392Z,8.94
2024-05-09T04:53:03.385Z,9.00
2024-05-09T04:55:30.254Z,9.07
2024-05-09T04:57:57.013Z,9.14
2024-05-09T05:00:32.435Z,9.18
2024-05-09T05:03:04.805Z,9.19
2024-05-09T05:05:31.770Z,9.22
2024-05-09T05:07:58.479Z,9.28
2024-05-09T05:10:33.223Z,9.37
2024-05-09T05:13:02.614Z,9.47
2024-05-09T05:15:29.285Z,9.59
2024-05-09T05:17:56.476Z,9.78
2024-05-09T05:20:30.691Z,9.95
2024-05-09T05:23:00.227Z,10.15
2024-05-09T05:25:26.998Z,10.35
2024-05-09T05:27:53.643Z,10.49
2024-05-09T05:30:25.243Z,10.68
2024-05-09T05:32:56.019Z,10.78
2024-05-09T05:35:22.893Z,10.87
2024-05-09T05:37:49.634Z,10.95
2024-05-09T05:40:25.368Z,11.06
2024-05-09T05:42:59.592Z,11.03
2024-05-09T05:45:26.355Z,11.06
2024-05-09T05:47:53.926Z,11.13
2024-05-09T05:50:27.667Z,11.13
2024-05-09T05:53:01.289Z,11.19
2024-05-09T05:55:27.992Z,11.24
2024-05-09T05:57:54.693Z,11.28
2024-05-09T06:00:29.114Z,11.34
2024-05-09T06:03:02.138Z,11.43
2024-05-09T06:05:29.117Z,11.49
2024-05-09T06:07:55.946Z,11.53
2024-05-09T06:10:29.580Z,11.61
2024-05-09T06:13:01.643Z,11.64
2024-05-09T06:15:28.362Z,11.69
2024-05-09T06:17:55.286Z,11.76
2024-05-09T06:20:31.543Z,11.70
2024-05-09T06:23:02.568Z,11.63
2024-05-09T06:25:29.292Z,11.54
2024-05-09T06:27:55.979Z,11.58
2024-05-09T06:30:30.043Z,11.65
2024-05-09T06:33:07.224Z,11.71
2024-05-09T06:35:34.366Z,11.83
2024-05-09T06:38:01.632Z,11.87
2024-05-09T06:40:36.450Z,11.96
2024-05-09T06:43:10.336Z,12.07
2024-05-09T06:45:37.157Z,12.11
2024-05-09T06:48:04.414Z,12.18
2024-05-09T06:50:37.040Z,12.14
2024-05-09T06:53:05.335Z,12.12
2024-05-09T06:55:32.102Z,12.15
2024-05-09T06:57:58.807Z,12.24
2024-05-09T07:00:34.455Z,12.27
2024-05-09T07:03:17.737Z,12.29
2024-05-09T07:05:48.342Z,12.43
2024-05-09T07:08:16.237Z,12.50
2024-05-09T07:10:43.275Z,12.55
2024-05-09T07:13:13.677Z,12.63
2024-05-09T07:15:41.355Z,12.72
2024-05-09T07:18:12.166Z,12.82
2024-05-09T07:20:40.120Z,12.85
2024-05-09T07:23:10.048Z,12.84
2024-05-09T07:25:42.503Z,12.91
2024-05-09T07:28:18.617Z,12.94
2024-05-09T07:30:45.417Z,12.98
2024-05-09T07:33:22.622Z,13.01
2024-05-09T07:35:50.643Z,13.06
2024-05-09T07:38:17.445Z,13.15
2024-05-09T07:40:44.298Z,13.21
2024-05-09T07:43:10.957Z,13.35
2024-05-09T07:45:48.367Z,13.46
2024-05-09T07:53:38.466Z,13.80
2024-05-09T07:56:06.788Z,13.91
2024-05-09T07:58:33.627Z,14.00
2024-05-09T08:01:00.393Z,14.06
2024-05-09T08:03:27.188Z,14.05
2024-05-09T08:05:54.017Z,14.06
2024-05-09T08:08:20.736Z,14.09
2024-05-09T08:10:47.649Z,14.12
2024-05-09T08:13:14.495Z,14.22
2024-05-09T08:15:41.440Z,14.31
2024-05-09T08:18:08.996Z,14.41
2024-05-09T08:20:39.025Z,14.44
2024-05-09T08:23:05.834Z,14.53
2024-05-09T08:25:32.562Z,14.61
2024-05-09T08:27:59.290Z,14.67
2024-05-09T08:30:32.873Z,14.74
2024-05-09T08:33:03.918Z,14.80
2024-05-09T08:35:30.708Z,14.84
2024-05-09T08:37:57.480Z,14.94
2024-05-09T08:40:30.981Z,15.06
2024-05-09T08:43:01.963Z,15.23
2024-05-09T08:45:28.700Z,15.38
2024-05-09T08:47:55.555Z,15.52
2024-05-09T08:50:31.702Z,15.65
2024-05-09T08:53:04.742Z,15.76
2024-05-09T08:55:31.399Z,15.89
2024-05-09T08:57:58.465Z,16.03
2024-05-09T09:00:33.862Z,16.21
2024-05-09T09:03:04.054Z,16.45
2024-05-09T09:05:31.258Z,16.63
2024-05-09T09:07:58.263Z,16.82
2024-05-09T09:10:31.062Z,17.00
2024-05-09T09:13:00.994Z,17.11
2024-05-09T09:15:27.831Z,17.18
2024-05-09T09:17:59.803Z,17.31
2024-05-09T09:20:34.122Z,17.48
2024-05-09T09:23:03.644Z,17.70
2024-05-09T09:25:30.436Z,17.81
2024-05-09T09:27:58.228Z,17.99
2024-05-09T09:30:34.985Z,18.15
2024-05-09T09:33:05.359Z,18.21
2024-05-09T09:35:32.422Z,18.40
2024-05-09T09:38:01.922Z,18.47
2024-05-09T09:40:40.397Z,18.41
2024-05-09T09:43:14.132Z,18.25
2024-05-09T09:45:41.767Z,18.45
2024-05-09T09:48:08.801Z,18.68
2024-05-09T09:50:35.674Z,18.78
2024-05-09T09:53:03.787Z,18.85
2024-05-09T09:55:31.183Z,18.87
2024-05-09T09:57:57.935Z,19.00
2024-05-09T10:00:30.556Z,19.14
2024-05-09T10:03:00.124Z,19.31
2024-05-09T10:05:27.154Z,19.37
2024-05-09T10:07:54.129Z,19.41
2024-05-09T10:10:31.443Z,19.45
2024-05-09T10:13:09.084Z,19.41
2024-05-09T10:15:46.003Z,19.30
2024-05-09T10:18:13.507Z,19.23
2024-05-09T10:20:43.723Z,19.25
2024-05-09T10:23:26.414Z,19.36
2024-05-09T10:26:00.174Z,19.49
2024-05-09T10:28:33.228Z,19.49
2024-05-09T10:31:06.490Z,19.54
2024-05-09T10:33:38.893Z,19.62
2024-05-09T10:36:18.526Z,19.52
2024-05-09T10:38:45.199Z,19.53
2024-05-09T10:41:11.937Z,19.58
2024-05-09T10:43:39.090Z,19.84
2024-05-09T10:46:05.864Z,19.99
2024-05-09T10:48:32.662Z,20.17
2024-05-09T10:50:59.489Z,20.23
2024-05-09T10:53:26.130Z,20.22
2024-05-09T10:55:59.235Z,20.26
2024-05-09T10:58:26.290Z,20.31
2024-05-09T11:00:57.574Z,20.36
2024-05-09T11:03:24.691Z,20.37
2024-05-09T11:05:55.121Z,20.49
2024-05-09T11:08:22.346Z,20.63
2024-05-09T11:10:53.025Z,20.72
2024-05-09T11:13:35.918Z,20.74
2024-05-09T11:16:02.969Z,20.75
2024-05-09T11:18:34.676Z,20.80
2024-05-09T11:21:03.708Z,20.71
2024-05-09T11:23:30.808Z,20.62
2024-05-09T11:25:58.238Z,20.66
2024-05-09T11:28:26.418Z,20.74
2024-05-09T11:30:53.247Z,20.75
2024-05-09T11:33:20.025Z,21.07
2024-05-09T11:35:46.838Z,21.34
2024-05-09T11:38:13.653Z,21.43
2024-05-09T11:40:40.530Z,21.37
2024-05-09T11:43:07.619Z,21.24
2024-05-09T11:45:34.455Z,21.12
2024-05-09T11:48:01.392Z,21.00
2024-05-09T11:50:33.020Z,20.88
2024-05-09T11:53:02.512Z,21.01
2024-05-09T11:55:29.458Z,21.20
2024-05-09T11:57:57.066Z,21.35
2024-05-09T12:00:33.029Z,21.59
2024-05-09T12:03:03.347Z,21.85
2024-05-09T12:05:30.203Z,22.01
2024-05-09T12:07:56.923Z,22.01
2024-05-09T12:10:32.086Z,21.58
2024-05-09T12:13:01.234Z,21.46
2024-05-09T12:15:28.038Z,21.49
2024-05-09T12:17:55.976Z,21.74
2024-05-09T12:20:32.314Z,22.02
2024-05-09T12:23:03.060Z,22.20
2024-05-09T12:25:29.790Z,22.24
2024-05-09T12:27:56.471Z,21.96
2024-05-09T12:30:32.772Z,21.75
2024-05-09T12:33:04.526Z,21.62
2024-05-09T12:35:31.484Z,21.70
2024-05-09T12:37:58.150Z,21.49
2024-05-09T12:40:34.208Z,21.31
2024-05-09T12:43:04.708Z,21.38
2024-05-09T12:45:31.769Z,21.38
2024-05-09T12:47:58.833Z,21.48
2024-05-09T12:50:32.016Z,21.66
2024-05-09T12:53:01.174Z,21.71
2024-05-09T12:55:28.746Z,21.88
2024-05-09T12:57:58.244Z,21.94
2024-05-09T13:00:31.454Z,21.70
2024-05-09T13:03:01.158Z,21.41
2024-05-09T13:05:28.433Z,21.54
2024-05-09T13:07:55.506Z,21.74
2024-05-09T13:10:29.109Z,21.75
2024-05-09T13:12:59.568Z,21.81
2024-05-09T13:15:26.600Z,21.89
2024-05-09T13:17:53.454Z,21.78
2024-05-09T13:20:29.114Z,21.48
2024-05-09T13:23:01.349Z,20.88
2024-05-09T13:25:28.099Z,20.45
2024-05-09T13:27:55.013Z,20.43
2024-05-09T13:30:29.423Z,20.40
2024-05-09T13:33:06.595Z,20.50
2024-05-09T13:35:34.146Z,20.41
2024-05-09T13:38:01.522Z,20.19
2024-05-09T13:40:33.478Z,20.05
2024-05-09T13:43:02.882Z,19.94
2024-05-09T13:45:29.768Z,20.04
2024-05-09T13:47:56.750Z,20.13
2024-05-09T13:50:31.559Z,20.22
2024-05-09T13:53:02.191Z,20.22
2024-05-09T13:55:29.078Z,19.93
2024-05-09T13:57:55.927Z,19.72
2024-05-09T14:00:37.236Z,19.99
2024-05-09T14:03:09.794Z,20.46
2024-05-09T14:05:36.950Z,20.59
2024-05-09T14:08:03.993Z,20.75
2024-05-09T14:10:32.006Z,20.49
2024-05-09T14:13:00.382Z,20.19
2024-05-09T14:15:27.119Z,19.92
2024-05-09T14:17:54.417Z,19.84
2024-05-09T14:20:30.827Z,20.23
2024-05-09T14:23:01.667Z,20.57
2024-05-09T14:25:28.730Z,20.80
2024-05-09T14:27:59.648Z,21.04
2024-05-09T14:30:34.541Z,21.13
2024-05-09T14:33:05.034Z,21.25
2024-05-09T14:35:32.263Z,21.19
2024-05-09T14:37:59.031Z,21.13
2024-05-09T14:40:36.394Z,20.84
2024-05-09T14:43:08.170Z,20.57
2024-05-09T14:45:35.177Z,20.28
2024-05-09T14:48:02.476Z,20.01
2024-05-09T14:50:35.816Z,19.78
2024-05-09T14:53:06.622Z,19.62
2024-05-09T14:55:34.843Z,19.47
2024-05-09T14:58:01.680Z,19.33
2024-05-09T15:00:33.306Z,19.25
2024-05-09T15:03:03.193Z,19.20
2024-05-09T15:05:30.113Z,19.11
2024-05-09T15:08:20.596Z,19.05
2024-05-09T15:10:51.438Z,19.11
2024-05-09T15:13:19.233Z,19.08
2024-05-09T15:15:46.275Z,19.07
2024-05-09T15:18:14.250Z,19.07
2024-05-09T15:20:41.490Z,19.02
2024-05-09T15:23:08.229Z,19.03
2024-05-09T15:25:35.211Z,18.99
2024-05-09T15:28:02.365Z,18.92
2024-05-09T15:30:32.285Z,18.89
2024-05-09T15:33:01.408Z,18.79
2024-05-09T15:35:28.464Z,18.73
2024-05-09T15:37:55.808Z,18.67
2024-05-09T15:40:31.653Z,18.57
2024-05-09T15:43:05.829Z,18.51
2024-05-09T15:45:32.927Z,18.49
2024-05-09T15:48:00.027Z,18.43
2024-05-09T15:50:35.791Z,18.40
2024-05-09T15:53:06.849Z,18.46
2024-05-09T15:55:34.707Z,18.40
2024-05-09T15:58:02.161Z,18.36
2024-05-09T16:00:36.870Z,18.31
2024-05-09T16:03:07.515Z,18.27
2024-05-09T16:05:34.658Z,18.24
2024-05-09T16:08:01.474Z,18.20
2024-05-09T16:10:32.667Z,18.19
2024-05-09T16:13:01.277Z,18.09
2024-05-09T16:15:28.184Z,18.00
2024-05-09T16:17:55.390Z,18.02
2024-05-09T16:20:33.807Z,17.99
2024-05-09T16:23:05.907Z,17.99
2024-05-09T16:25:32.623Z,17.91
2024-05-09T16:27:59.367Z,17.86
2024-05-09T16:30:32.160Z,17.74
2024-05-09T16:33:02.678Z,17.68
2024-05-09T16:35:29.639Z,17.62
2024-05-09T16:37:56.300Z,17.57
2024-05-09T16:40:30.326Z,17.53
2024-05-09T16:43:04.638Z,17.42
2024-05-09T16:45:31.790Z,17.44
2024-05-09T16:47:59.292Z,17.32
2024-05-09T16:50:31.116Z,17.26
2024-05-09T16:53:00.212Z,17.18
2024-05-09T16:55:27.346Z,17.23
2024-05-09T16:57:54.199Z,17.14
2024-05-09T17:00:31.127Z,17.07
2024-05-09T17:03:06.647Z,17.07
2024-05-09T17:05:34.451Z,17.02
2024-05-09T17:08:01.543Z,16.98
2024-05-09T17:10:32.943Z,17.04
2024-05-09T17:13:02.184Z,17.07
2024-05-09T17:15:29.266Z,17.08
2024-05-09T17:17:56.064Z,17.01
2024-05-09T17:20:29.830Z,16.96
2024-05-09T17:23:02.057Z,16.90
2024-05-09T17:25:28.837Z,16.89
2024-05-09T17:27:56.781Z,16.82
2024-05-09T17:30:32.008Z,16.76
2024-05-09T17:33:03.997Z,16.69
2024-05-09T17:35:31.676Z,16.65
2024-05-09T17:37:58.836Z,16.63
2024-05-09T17:40:31.545Z,16.58
2024-05-09T17:43:02.433Z,16.51
2024-05-09T17:45:29.563Z,16.48
2024-05-09T17:47:56.408Z,16.45
2024-05-09T17:50:30.318Z,16.39
2024-05-09T17:53:01.878Z,16.27
2024-05-09T17:55:28.840Z,16.32
2024-05-09T17:57:55.887Z,16.27
2024-05-09T18:00:32.874Z,16.23
2024-05-09T18:03:05.488Z,16.15
2024-05-09T18:05:32.625Z,16.09
2024-05-09T18:07:59.612Z,16.00
2024-05-09T18:10:33.266Z,15.94
2024-05-09T18:13:04.206Z,15.92
2024-05-09T18:15:30.972Z,15.87
2024-05-09T18:17:58.115Z,15.81
2024-05-09T18:20:36.039Z,15.75
2024-05-09T18:23:08.348Z,15.69
2024-05-09T18:25:35.126Z,15.66
2024-05-09T18:28:02.624Z,15.63
2024-05-09T18:30:34.706Z,15.65
2024-05-09T18:33:03.932Z,15.59
2024-05-09T18:35:30.967Z,15.52
2024-05-09T18:37:57.668Z,15.43
2024-05-09T18:40:32.559Z,15.43
2024-05-09T18:43:02.914Z,15.36
2024-05-09T18:45:29.872Z,15.30
2024-05-09T18:47:56.681Z,15.23
2024-05-09T18:50:31.967Z,15.21
2024-05-09T18:56:34.483Z,15.08
2024-05-09T18:59:01.330Z,15.04
2024-05-09T19:01:28.024Z,14.97
2024-05-09T19:03:55.328Z,14.90
2024-05-09T19:06:24.612Z,14.87
2024-05-09T19:08:51.475Z,14.81
2024-05-09T19:11:18.255Z,14.74
2024-05-09T19:13:45.223Z,14.69
2024-05-09T19:16:12.050Z,14.68
2024-05-09T19:18:39.025Z,14.66
2024-05-09T19:21:06.481Z,14.60
2024-05-09T19:23:38.069Z,14.55
2024-05-09T19:26:05.461Z,14.51
2024-05-09T19:28:32.267Z,14.47
2024-05-09T19:30:59.152Z,14.46
2024-05-09T19:33:25.864Z,14.43
2024-05-09T19:35:52.715Z,14.42
2024-05-09T19:38:19.554Z,14.41
2024-05-09T19:40:46.514Z,14.40
2024-05-09T19:43:13.501Z,14.37
2024-05-09T19:45:40.354Z,14.37
2024-05-09T19:48:07.785Z,14.37
2024-05-09T19:50:41.515Z,14.33
2024-05-09T19:53:11.587Z,14.31
2024-05-09T19:55:38.659Z,14.28
2024-05-09T19:58:06.555Z,14.24
2024-05-09T20:00:36.660Z,14.23
2024-05-09T20:03:05.821Z,14.24
2024-05-09T20:05:33.275Z,14.19
2024-05-09T20:08:00.274Z,14.13
2024-05-09T20:10:32.093Z,14.10
2024-05-09T20:13:01.091Z,14.09
2024-05-09T20:15:27.861Z,14.04
2024-05-09T20:17:54.965Z,14.01
2024-05-09T20:20:32.458Z,13.99
2024-05-09T20:23:04.339Z,13.98
2024-05-09T20:25:31.047Z,13.97
2024-05-09T20:27:57.818Z,13.95
2024-05-09T20:30:31.372Z,13.94
2024-05-09T20:33:00.466Z,13.95
2024-05-09T20:35:29.523Z,13.95
2024-05-09T20:37:56.165Z,13.96
2024-05-09T20:40:29.145Z,13.93
2024-05-09T20:43:00.272Z,13.87
2024-05-09T20:45:27.155Z,13.83
2024-05-09T20:47:54.178Z,13.80
2024-05-09T20:50:28.865Z,13.84
2024-05-09T20:53:03.263Z,13.88
2024-05-09T20:55:30.271Z,13.87
2024-05-09T20:57:57.465Z,13.88
2024-05-09T21:00:33.879Z,13.92
2024-05-09T21:03:06.327Z,13.95
2024-05-09T21:05:33.961Z,13.97
2024-05-09T21:08:00.871Z,13.99
2024-05-09T21:10:32.098Z,13.98
2024-05-09T21:13:00.383Z,13.93
2024-05-09T21:15:27.084Z,13.88
2024-05-09T21:17:53.799Z,13.89
2024-05-09T21:20:24.239Z,13.85
2024-05-09T21:22:57.504Z,13.86
2024-05-09T21:25:24.301Z,13.85
2024-05-09T21:27:51.103Z,13.86
2024-05-09T21:30:26.810Z,13.81
2024-05-09T21:32:59.362Z,13.80
2024-05-09T21:35:26.162Z,13.79
2024-05-09T21:37:52.858Z,13.79
2024-05-09T21:40:27.112Z,13.73
2024-05-09T21:43:01.026Z,13.72
2024-05-09T21:45:27.927Z,13.70
2024-05-09T21:47:54.789Z,13.65
2024-05-09T21:50:28.103Z,13.63
2024-05-09T21:52:59.259Z,13.60
2024-05-09T21:55:26.050Z,13.59
2024-05-09T21:57:52.790Z,13.58
2024-05-09T22:00:28.855Z,13.56
2024-05-09T22:03:02.275Z,13.54
2024-05-09T22:05:29.311Z,13.52
2024-05-09T22:07:56.400Z,13.51
2024-05-09T22:10:27.102Z,13.50
2024-05-09T22:13:00.056Z,13.53
2024-05-09T22:15:26.828Z,13.55
2024-05-09T22:17:53.829Z,13.53
2024-05-09T22:20:28.803Z,13.47
2024-05-09T22:23:02.682Z,13.48
2024-05-09T22:25:31.010Z,13.45
2024-05-09T22:27:58.692Z,13.45
2024-05-09T22:30:34.080Z,13.42
2024-05-09T22:33:05.464Z,13.35
2024-05-09T22:35:32.352Z,13.28
2024-05-09T22:37:59.089Z,13.30
2024-05-09T22:40:37.929Z,13.28
2024-05-09T22:43:12.738Z,13.22
2024-05-09T22:45:39.803Z,13.22
2024-05-09T22:48:07.988Z,13.22
2024-05-09T22:50:34.954Z,13.13
2024-05-09T22:53:01.694Z,13.09
2024-05-09T22:55:28.474Z,13.08
2024-05-09T22:57:55.284Z,13.02
2024-05-09T23:00:30.457Z,12.98
2024-05-09T23:03:02.026Z,12.95
2024-05-09T23:05:29.252Z,12.93
2024-05-09T23:07:56.252Z,12.89
2024-05-09T23:10:31.021Z,12.87
2024-05-09T23:13:02.363Z,12.92
2024-05-09T23:15:29.250Z,13.00
2024-05-09T23:17:56.092Z,13.06
2024-05-09T23:20:33.263Z,13.09
2024-05-09T23:23:05.286Z,13.07
2024-05-09T23:25:32.427Z,13.02
2024-05-09T23:27:59.175Z,12.97
2024-05-09T23:30:34.085Z,12.94
2024-05-09T23:33:05.406Z,12.96
2024-05-09T23:35:32.210Z,13.01
2024-05-09T23:37:58.866Z,13.00
2024-05-09T23:40:36.752Z,12.94
2024-05-09T23:43:06.921Z,12.93
2024-05-09T23:45:33.915Z,12.92
2024-05-09T23:48:01.074Z,12.96
2024-05-09T23:50:34.388Z,13.02
2024-05-09T23:53:04.594Z,13.00
2024-05-09T23:55:31.927Z,12.93
2024-05-09T23:57:59.107Z,12.89
